Time;durP1;ratioP1;P1;durP2;ratioP2;P2;SDS_P1;SDS_P2;PMS_P1;PMS_P2;Temp;Humidity;BMP_temperature;BMP_pressure;BME280_temperature;BME280_humidity;BME280_pressure;Samples;Min_cycle;Max_cycle;Signal;HPM_P1;HPM_P2
2022/02/27 00:02:00;;;;;;;;;;;6.20;99.90;;;;;;4303147;33;43895;-85
2022/02/27 00:04:30;;;;;;;;;;;6.10;99.90;;;;;;4303414;33;45064;-85
2022/02/27 00:06:57;;;;;;;;;;;6.10;99.90;;;;;;4302970;33;44831;-85
2022/02/27 00:09:24;;;;;;;;;;;6.10;99.90;;;;;;4302978;33;44872;-85
2022/02/27 00:11:51;;;;;;;;;;;6.00;99.90;;;;;;4303396;33;43016;-85
2022/02/27 00:14:19;;;;;;;;;;;6.00;99.90;;;;;;4303249;33;44078;-85
2022/02/27 00:16:46;;;;;;;;;;;6.00;99.90;;;;;;4303282;33;45123;-85
2022/02/27 00:19:13;;;;;;;;;;;6.00;99.90;;;;;;4302852;33;43373;-85
2022/02/27 00:21:41;;;;;;;;;;;6.00;99.90;;;;;;4315641;33;43506;-85
2022/02/27 00:24:09;;;;;;;;;;;6.00;99.90;;;;;;4302899;33;45425;-85
2022/02/27 00:26:36;;;;;;;;;;;5.90;99.90;;;;;;4302927;33;45338;-85
2022/02/27 00:29:03;;;;;;;;;;;5.90;99.90;;;;;;4303105;33;44350;-85
2022/02/27 00:31:31;;;;;;;;;;;5.90;99.90;;;;;;4303192;33;43986;-85
2022/02/27 00:33:58;;;;;;;;;;;5.80;99.90;;;;;;4303147;33;44707;-85
2022/02/27 00:36:25;;;;;;;;;;;5.80;99.90;;;;;;4316413;33;44854;-85
2022/02/27 00:38:52;;;;;;;;;;;5.90;99.90;;;;;;4303087;33;44837;-86
2022/02/27 00:41:20;;;;;;;;;;;5.80;99.90;;;;;;4302642;33;43289;-85
2022/02/27 00:43:47;;;;;;;;;;;5.80;99.90;;;;;;4302756;33;45727;-85
2022/02/27 00:46:14;;;;;;;;;;;5.80;99.90;;;;;;4302948;33;45738;-85
2022/02/27 00:48:41;;;;;;;;;;;5.80;99.90;;;;;;4302623;33;42531;-85
2022/02/27 00:51:09;;;;;;;;;;;5.80;99.90;;;;;;4302432;33;44914;-85
2022/02/27 00:53:36;;;;;;;;;;;5.80;99.90;;;;;;4302491;33;44768;-85
2022/02/27 00:56:04;;;;;;;;;;;5.80;99.90;;;;;;4302839;33;43498;-85
2022/02/27 00:58:31;;;;;;;;;;;5.80;99.90;;;;;;4302917;33;44591;-85
2022/02/27 01:01:00;;;;;;;;;;;5.80;99.90;;;;;;4316019;33;44746;-85
2022/02/27 01:03:28;;;;;;;;;;;5.80;99.90;;;;;;4315254;33;44046;-86
2022/02/27 01:05:55;;;;;;;;;;;5.80;99.90;;;;;;4302515;33;45065;-85
2022/02/27 01:08:22;;;;;;;;;;;5.80;99.90;;;;;;4302475;33;44926;-85
2022/02/27 01:10:49;;;;;;;;;;;5.80;99.90;;;;;;4302377;33;44228;-84
2022/02/27 01:13:17;;;;;;;;;;;5.80;99.90;;;;;;4315435;33;44159;-85
2022/02/27 01:15:44;;;;;;;;;;;5.80;99.90;;;;;;4316008;33;42566;-85
2022/02/27 01:18:11;;;;;;;;;;;5.80;99.90;;;;;;4302701;33;44892;-85
2022/02/27 01:20:38;;;;;;;;;;;5.70;99.90;;;;;;4302594;33;45474;-85
2022/02/27 01:23:05;;;;;;;;;;;5.80;99.90;;;;;;4302328;33;42902;-85
2022/02/27 01:25:32;;;;;;;;;;;5.70;99.90;;;;;;4302346;33;44770;-86
2022/02/27 01:27:59;;;;;;;;;;;5.70;99.90;;;;;;4302799;33;44213;-85
2022/02/27 01:30:26;;;;;;;;;;;5.70;99.90;;;;;;4314703;33;45794;-85
2022/02/27 01:32:53;;;;;;;;;;;5.70;99.90;;;;;;4302695;33;43246;-85
2022/02/27 01:35:21;;;;;;;;;;;5.70;99.90;;;;;;4302421;33;43006;-85
2022/02/27 01:37:50;;;;;;;;;;;5.70;99.90;;;;;;4302572;33;44176;-85
2022/02/27 01:40:17;;;;;;;;;;;5.70;99.90;;;;;;4302386;33;45939;-85
2022/02/27 01:42:44;;;;;;;;;;;5.70;99.90;;;;;;4302570;33;45136;-85
2022/02/27 01:45:12;;;;;;;;;;;5.60;99.90;;;;;;4314043;33;45165;-85
2022/02/27 01:47:39;;;;;;;;;;;5.60;99.90;;;;;;4302235;33;43367;-85
2022/02/27 01:50:06;;;;;;;;;;;5.60;99.90;;;;;;4302478;33;44927;-85
2022/02/27 01:52:34;;;;;;;;;;;5.60;99.90;;;;;;4304551;33;44801;-85
2022/02/27 01:55:01;;;;;;;;;;;5.60;99.90;;;;;;4316990;33;43538;-85
2022/02/27 01:57:29;;;;;;;;;;;5.60;99.90;;;;;;4317149;33;46112;-85
2022/02/27 01:59:56;;;;;;;;;;;5.60;99.90;;;;;;4305002;33;45905;-85
2022/02/27 02:02:23;;;;;;;;;;;5.60;99.90;;;;;;4304859;33;44282;-84
2022/02/27 02:04:50;;;;;;;;;;;5.60;99.90;;;;;;4304903;33;44032;-85
2022/02/27 02:07:17;;;;;;;;;;;5.60;99.90;;;;;;4304837;33;45736;-85
2022/02/27 02:09:44;;;;;;;;;;;5.60;99.90;;;;;;4318139;33;45945;-85
2022/02/27 02:12:12;;;;;;;;;;;5.60;99.90;;;;;;4305134;33;43474;-85
2022/02/27 02:14:39;;;;;;;;;;;5.50;99.90;;;;;;4317604;33;45534;-86
2022/02/27 02:17:06;;;;;;;;;;;5.50;99.90;;;;;;4304552;33;44227;-85
2022/02/27 02:19:34;;;;;;;;;;;5.50;99.90;;;;;;4304335;33;44708;-85
2022/02/27 02:22:02;;;;;;;;;;;5.50;99.90;;;;;;4304553;33;44137;-85
2022/02/27 02:24:29;;;;;;;;;;;5.40;99.90;;;;;;4304474;33;43358;-85
2022/02/27 02:26:57;;;;;;;;;;;5.40;99.90;;;;;;4304231;33;44523;-85
2022/02/27 02:29:25;;;;;;;;;;;5.40;99.90;;;;;;4317928;33;43955;-85
2022/02/27 02:31:54;;;;;;;;;;;5.40;99.90;;;;;;4304823;33;45612;-85
2022/02/27 02:34:24;;;;;;;;;;;5.40;99.90;;;;;;4304342;33;44073;-85
2022/02/27 02:36:52;;;;;;;;;;;5.30;99.90;;;;;;4304798;33;44792;-85
2022/02/27 02:39:20;;;;;;;;;;;5.30;99.90;;;;;;4304645;33;44395;-85
2022/02/27 02:41:48;;;;;;;;;;;5.30;99.90;;;;;;4304171;33;43874;-84
2022/02/27 02:44:15;;;;;;;;;;;5.30;99.90;;;;;;4304124;33;43050;-85
2022/02/27 02:46:43;;;;;;;;;;;5.30;99.90;;;;;;4304379;33;44834;-85
2022/02/27 02:49:11;;;;;;;;;;;5.30;99.90;;;;;;4317610;33;44409;-85
2022/02/27 02:51:38;;;;;;;;;;;5.30;99.90;;;;;;4303951;33;44760;-84
2022/02/27 02:54:07;;;;;;;;;;;5.30;99.90;;;;;;4304421;33;45879;-85
2022/02/27 02:56:34;;;;;;;;;;;5.30;99.90;;;;;;4303978;33;43058;-84
2022/02/27 02:59:01;;;;;;;;;;;5.30;99.90;;;;;;4304070;33;42867;-84
2022/02/27 03:01:29;;;;;;;;;;;5.30;99.90;;;;;;4303652;33;45434;-84
2022/02/27 03:03:56;;;;;;;;;;;5.30;99.90;;;;;;4304436;33;44032;-85
2022/02/27 03:06:24;;;;;;;;;;;5.30;99.90;;;;;;4304270;33;44783;-84
2022/02/27 03:08:53;;;;;;;;;;;5.30;99.90;;;;;;4304513;33;20061;-85
2022/02/27 03:11:21;;;;;;;;;;;5.20;99.90;;;;;;4304167;33;44213;-85
2022/02/27 03:13:49;;;;;;;;;;;5.20;99.90;;;;;;4304274;33;44182;-85
2022/02/27 03:16:17;;;;;;;;;;;5.20;99.90;;;;;;4316761;33;42759;-84
2022/02/27 03:18:44;;;;;;;;;;;5.20;99.90;;;;;;4303541;33;45917;-84
2022/02/27 03:21:13;;;;;;;;;;;5.20;99.90;;;;;;4316696;33;43568;-84
2022/02/27 03:23:40;;;;;;;;;;;5.10;99.90;;;;;;4316652;33;43572;-84
2022/02/27 03:26:08;;;;;;;;;;;5.10;99.90;;;;;;4303763;33;42811;-84
2022/02/27 03:28:35;;;;;;;;;;;5.10;99.90;;;;;;4316481;33;43805;-85
2022/02/27 03:31:04;;;;;;;;;;;5.10;99.90;;;;;;4303490;33;42540;-84
2022/02/27 03:33:31;;;;;;;;;;;5.10;99.90;;;;;;4316480;33;42788;-84
2022/02/27 03:35:58;;;;;;;;;;;5.00;99.90;;;;;;4303903;33;43878;-85
2022/02/27 03:38:28;;;;;;;;;;;5.10;99.90;;;;;;4303818;33;44432;-84
2022/02/27 03:40:55;;;;;;;;;;;5.00;99.90;;;;;;4303694;33;45782;-84
2022/02/27 03:43:22;;;;;;;;;;;5.00;99.90;;;;;;4303157;33;44210;-84
2022/02/27 03:45:51;;;;;;;;;;;5.00;99.90;;;;;;4303761;33;45687;-84
2022/02/27 03:48:19;;;;;;;;;;;5.00;99.90;;;;;;4303623;33;44132;-84
2022/02/27 03:50:46;;;;;;;;;;;5.00;99.90;;;;;;4303498;33;44121;-84
2022/02/27 03:53:15;;;;;;;;;;;5.00;99.90;;;;;;4303986;33;44845;-84
2022/02/27 03:55:42;;;;;;;;;;;5.00;99.90;;;;;;4303565;33;44351;-84
2022/02/27 03:58:09;;;;;;;;;;;5.00;99.90;;;;;;4303433;33;46190;-84
2022/02/27 04:00:38;;;;;;;;;;;5.00;99.90;;;;;;4303486;33;44554;-84
2022/02/27 04:03:08;;;;;;;;;;;4.90;99.90;;;;;;4302889;33;45135;-84
2022/02/27 04:05:36;;;;;;;;;;;5.00;99.90;;;;;;4302933;33;45731;-84
2022/02/27 04:08:03;;;;;;;;;;;5.00;99.90;;;;;;4316775;33;43976;-84
2022/02/27 04:10:31;;;;;;;;;;;5.00;99.90;;;;;;4314978;33;43331;-84
2022/02/27 04:12:58;;;;;;;;;;;5.00;99.90;;;;;;4302804;33;45028;-84
2022/02/27 04:15:25;;;;;;;;;;;5.00;99.90;;;;;;4314294;33;44571;-84
2022/02/27 04:17:52;;;;;;;;;;;5.00;99.90;;;;;;4302779;33;45937;-85
2022/02/27 04:20:19;;;;;;;;;;;5.00;99.90;;;;;;4316357;33;44829;-84
2022/02/27 04:22:46;;;;;;;;;;;5.00;99.90;;;;;;4314745;33;42891;-84
2022/02/27 04:25:14;;;;;;;;;;;5.00;99.90;;;;;;4314705;33;45173;-84
2022/02/27 04:27:41;;;;;;;;;;;5.00;99.90;;;;;;4303086;33;44877;-84
2022/02/27 04:30:08;;;;;;;;;;;5.00;99.90;;;;;;4303081;33;43939;-84
2022/02/27 04:32:35;;;;;;;;;;;4.90;99.90;;;;;;4302541;33;44741;-84
2022/02/27 04:35:03;;;;;;;;;;;5.00;99.90;;;;;;4314742;33;43169;-84
2022/02/27 04:37:30;;;;;;;;;;;4.90;99.90;;;;;;4303080;33;46089;-84
2022/02/27 04:39:57;;;;;;;;;;;4.90;99.90;;;;;;4315914;33;44300;-85
2022/02/27 04:42:24;;;;;;;;;;;4.90;99.90;;;;;;4302679;33;42314;-84
2022/02/27 04:44:51;;;;;;;;;;;4.90;99.90;;;;;;4302961;33;44755;-85
2022/02/27 04:47:19;;;;;;;;;;;4.90;99.90;;;;;;4302691;33;44212;-84
2022/02/27 04:49:48;;;;;;;;;;;4.80;99.90;;;;;;4315625;33;44821;-84
2022/02/27 04:52:16;;;;;;;;;;;4.90;99.90;;;;;;4314801;33;44857;-84
2022/02/27 04:54:44;;;;;;;;;;;4.90;99.90;;;;;;4302844;33;42709;-84
2022/02/27 04:57:11;;;;;;;;;;;4.90;99.90;;;;;;4302783;33;44757;-84
2022/02/27 04:59:38;;;;;;;;;;;4.90;99.90;;;;;;4302394;33;43939;-84
2022/02/27 05:02:05;;;;;;;;;;;4.90;99.90;;;;;;4302488;33;45865;-84
2022/02/27 05:04:34;;;;;;;;;;;4.90;99.90;;;;;;4302517;33;44069;-85
2022/02/27 05:07:02;;;;;;;;;;;4.90;99.90;;;;;;4316058;33;44212;-84
2022/02/27 05:09:30;;;;;;;;;;;4.90;99.90;;;;;;4315773;33;44993;-84
2022/02/27 05:11:57;;;;;;;;;;;4.80;99.90;;;;;;4315482;33;45251;-84
2022/02/27 05:14:24;;;;;;;;;;;4.80;99.90;;;;;;4315278;33;44708;-85
2022/02/27 05:16:55;;;;;;;;;;;4.80;99.90;;;;;;4302498;33;44249;-84
2022/02/27 05:19:22;;;;;;;;;;;4.80;99.90;;;;;;4302768;33;44635;-84
2022/02/27 05:21:49;;;;;;;;;;;4.80;99.90;;;;;;4302492;33;44395;-84
2022/02/27 05:24:16;;;;;;;;;;;4.80;99.90;;;;;;4302634;33;43311;-84
2022/02/27 05:26:43;;;;;;;;;;;4.80;99.90;;;;;;4304785;33;44779;-84
2022/02/27 05:29:11;;;;;;;;;;;4.80;99.90;;;;;;4318225;33;44308;-84
2022/02/27 05:31:41;;;;;;;;;;;4.70;99.90;;;;;;4318369;33;42516;-84
2022/02/27 05:34:08;;;;;;;;;;;4.80;99.90;;;;;;4305041;33;45862;-84
2022/02/27 05:36:36;;;;;;;;;;;4.70;99.90;;;;;;4305341;33;43468;-84
2022/02/27 05:39:04;;;;;;;;;;;4.80;99.90;;;;;;4305415;33;45055;-84
2022/02/27 05:41:31;;;;;;;;;;;4.80;99.90;;;;;;4305269;33;45946;-84
2022/02/27 05:43:59;;;;;;;;;;;4.80;99.90;;;;;;4304997;33;44069;-84
2022/02/27 05:46:26;;;;;;;;;;;4.80;99.90;;;;;;4305198;33;42561;-84
2022/02/27 05:48:55;;;;;;;;;;;4.70;99.90;;;;;;4316839;33;45200;-84
2022/02/27 05:51:23;;;;;;;;;;;4.70;99.90;;;;;;4317968;33;44384;-84
2022/02/27 05:53:50;;;;;;;;;;;4.70;99.90;;;;;;4304804;33;44742;-85
2022/02/27 05:56:17;;;;;;;;;;;4.70;99.90;;;;;;4304893;33;43467;-84
2022/02/27 05:58:44;;;;;;;;;;;4.70;99.90;;;;;;4304861;33;43225;-85
2022/02/27 06:01:12;;;;;;;;;;;4.60;99.90;;;;;;4304692;33;44828;-84
2022/02/27 06:03:39;;;;;;;;;;;4.60;99.90;;;;;;4304438;33;44853;-84
2022/02/27 06:06:07;;;;;;;;;;;4.60;99.90;;;;;;4304893;33;44767;-84
2022/02/27 06:08:34;;;;;;;;;;;4.60;99.90;;;;;;4304946;33;45786;-85
2022/02/27 06:11:01;;;;;;;;;;;4.60;99.90;;;;;;4304748;33;44295;-84
2022/02/27 06:13:28;;;;;;;;;;;4.50;99.90;;;;;;4316698;33;44053;-84
2022/02/27 06:15:57;;;;;;;;;;;4.50;99.90;;;;;;4305081;33;43105;-84
2022/02/27 06:18:24;;;;;;;;;;;4.50;99.90;;;;;;4304497;33;44049;-85
2022/02/27 06:20:51;;;;;;;;;;;4.50;99.90;;;;;;4304937;33;43910;-84
2022/02/27 06:23:23;;;;;;;;;;;4.50;99.90;;;;;;4304727;33;44994;-84
2022/02/27 06:25:53;;;;;;;;;;;4.50;99.90;;;;;;4304468;33;44277;-84
2022/02/27 06:28:21;;;;;;;;;;;4.50;99.90;;;;;;4304566;33;45476;-84
2022/02/27 06:30:48;;;;;;;;;;;4.50;99.90;;;;;;4304311;33;43318;-84
2022/02/27 06:33:15;;;;;;;;;;;4.50;99.90;;;;;;4304193;33;43855;-84
2022/02/27 06:35:42;;;;;;;;;;;4.50;99.90;;;;;;4317698;33;44176;-85
2022/02/27 06:38:12;;;;;;;;;;;4.50;99.90;;;;;;4303685;33;43505;-84
2022/02/27 06:40:39;;;;;;;;;;;4.50;99.90;;;;;;4304673;33;44391;-85
2022/02/27 06:43:08;;;;;;;;;;;4.50;99.90;;;;;;4316709;33;44775;-85
2022/02/27 06:45:35;;;;;;;;;;;4.40;99.90;;;;;;4304107;33;44203;-84
2022/02/27 06:48:02;;;;;;;;;;;4.40;99.90;;;;;;4317501;33;44442;-85
2022/02/27 06:50:30;;;;;;;;;;;4.30;99.90;;;;;;4304424;33;44348;-85
2022/02/27 06:52:57;;;;;;;;;;;4.30;99.90;;;;;;4304473;33;44056;-85
2022/02/27 06:55:25;;;;;;;;;;;4.30;99.90;;;;;;4304260;33;43250;-84
2022/02/27 06:57:52;;;;;;;;;;;4.30;99.90;;;;;;4304515;33;43645;-85
2022/02/27 07:00:19;;;;;;;;;;;4.30;99.90;;;;;;4317488;33;45544;-85
2022/02/27 07:02:47;;;;;;;;;;;4.30;99.90;;;;;;4303871;33;44156;-85
2022/02/27 07:05:14;;;;;;;;;;;4.30;99.90;;;;;;4304444;33;43259;-85
2022/02/27 07:07:41;;;;;;;;;;;4.30;99.90;;;;;;4303952;33;44779;-85
2022/02/27 07:10:13;;;;;;;;;;;4.40;99.90;;;;;;4317400;33;43512;-85
2022/02/27 07:12:40;;;;;;;;;;;4.40;99.90;;;;;;4304207;33;44426;-85
2022/02/27 07:15:09;;;;;;;;;;;4.40;99.90;;;;;;4303757;33;43750;-85
2022/02/27 07:17:36;;;;;;;;;;;4.30;99.90;;;;;;4303986;33;44310;-85
2022/02/27 07:20:06;;;;;;;;;;;4.30;99.90;;;;;;4315601;33;45233;-85
2022/02/27 07:22:37;;;;;;;;;;;4.30;99.90;;;;;;4315830;33;44174;-85
2022/02/27 07:25:05;;;;;;;;;;;4.30;99.90;;;;;;4304344;33;43430;-85
2022/02/27 07:27:32;;;;;;;;;;;4.30;99.90;;;;;;4303525;33;44851;-85
2022/02/27 07:30:03;;;;;;;;;;;4.30;99.90;;;;;;4303684;33;44838;-85
2022/02/27 07:32:30;;;;;;;;;;;4.40;99.90;;;;;;4316895;33;42521;-85
2022/02/27 07:35:00;;;;;;;;;;;4.30;99.90;;;;;;4303821;33;44948;-85
2022/02/27 07:37:27;;;;;;;;;;;4.40;99.90;;;;;;4303389;33;44220;-85
2022/02/27 07:39:54;;;;;;;;;;;4.40;99.90;;;;;;4303301;33;44273;-84
2022/02/27 07:42:22;;;;;;;;;;;4.40;99.90;;;;;;4303581;33;45798;-84
2022/02/27 07:44:49;;;;;;;;;;;4.40;99.90;;;;;;4303661;33;43011;-85
2022/02/27 07:47:17;;;;;;;;;;;4.40;99.90;;;;;;4303891;33;45741;-85
2022/02/27 07:49:44;;;;;;;;;;;4.40;99.90;;;;;;4315099;33;44295;-84
2022/02/27 07:52:13;;;;;;;;;;;4.50;99.90;;;;;;4303335;33;44018;-85
2022/02/27 07:54:40;;;;;;;;;;;4.50;99.90;;;;;;4303206;33;44745;-85
2022/02/27 07:57:07;;;;;;;;;;;4.50;99.90;;;;;;4316331;33;43242;-84
2022/02/27 07:59:34;;;;;;;;;;;4.50;99.90;;;;;;4303388;33;44114;-85
2022/02/27 08:02:04;;;;;;;;;;;4.50;99.90;;;;;;4303480;33;45864;-85
2022/02/27 08:04:31;;;;;;;;;;;4.50;99.90;;;;;;4316172;33;44021;-84
2022/02/27 08:07:00;;;;;;;;;;;4.50;99.90;;;;;;4303364;33;42319;-84
2022/02/27 08:09:30;;;;;;;;;;;4.50;99.90;;;;;;4303671;33;45043;-84
2022/02/27 08:11:57;;;;;;;;;;;4.60;99.90;;;;;;4302839;33;44158;-85
2022/02/27 08:14:24;;;;;;;;;;;4.60;99.90;;;;;;4302917;33;44797;-84
2022/02/27 08:16:52;;;;;;;;;;;4.60;99.90;;;;;;4303107;33;44509;-85
2022/02/27 08:19:19;;;;;;;;;;;4.60;99.90;;;;;;4315873;33;45874;-84
2022/02/27 08:21:46;;;;;;;;;;;4.60;99.90;;;;;;4303307;33;43043;-84
2022/02/27 08:24:15;;;;;;;;;;;4.60;99.90;;;;;;4303156;33;44147;-84
2022/02/27 08:26:42;;;;;;;;;;;4.60;99.90;;;;;;4302659;33;45353;-84
2022/02/27 08:29:10;;;;;;;;;;;4.60;99.90;;;;;;4302716;33;44480;-84
2022/02/27 08:31:40;;;;;;;;;;;4.60;99.90;;;;;;4303093;33;44142;-84
2022/02/27 08:34:09;;;;;;;;;;;4.60;99.90;;;;;;4315183;33;44937;-84
2022/02/27 08:36:37;;;;;;;;;;;4.60;99.90;;;;;;4302706;33;44792;-84
2022/02/27 08:39:05;;;;;;;;;;;4.60;99.90;;;;;;4302523;33;46017;-84
2022/02/27 08:41:32;;;;;;;;;;;4.70;99.90;;;;;;4302923;33;44565;-84
2022/02/27 08:44:04;;;;;;;;;;;4.70;99.90;;;;;;4315822;33;42684;-84
2022/02/27 08:46:31;;;;;;;;;;;4.70;99.90;;;;;;4302817;33;43454;-83
2022/02/27 08:48:58;;;;;;;;;;;4.70;99.90;;;;;;4303066;33;43387;-83
2022/02/27 08:51:28;;;;;;;;;;;4.70;99.90;;;;;;4302940;33;44727;-84
2022/02/27 08:53:55;;;;;;;;;;;4.70;99.90;;;;;;4302901;33;43259;-83
2022/02/27 08:56:22;;;;;;;;;;;4.70;99.90;;;;;;4302952;33;43104;-83
2022/02/27 08:58:52;;;;;;;;;;;4.70;99.90;;;;;;4302442;33;43268;-83
2022/02/27 09:01:19;;;;;;;;;;;4.70;99.90;;;;;;4302595;33;45953;-84
2022/02/27 09:03:47;;;;;;;;;;;4.70;99.90;;;;;;4302822;33;43984;-83
2022/02/27 09:06:14;;;;;;;;;;;4.80;99.90;;;;;;4315457;33;43446;-84
2022/02/27 09:08:42;;;;;;;;;;;4.80;99.90;;;;;;4316094;33;44420;-84
2022/02/27 09:11:10;;;;;;;;;;;4.80;99.90;;;;;;4302310;33;46065;-83
2022/02/27 09:13:37;;;;;;;;;;;4.80;99.90;;;;;;4302520;33;42894;-84
2022/02/27 09:16:04;;;;;;;;;;;4.80;99.90;;;;;;4302752;33;45084;-83
2022/02/27 09:18:32;;;;;;;;;;;4.80;99.90;;;;;;4302244;33;44811;-82
2022/02/27 09:20:59;;;;;;;;;;;4.90;99.90;;;;;;4302745;33;43941;-86
2022/02/27 09:23:26;;;;;;;;;;;4.80;99.90;;;;;;4302196;33;45178;-84
2022/02/27 09:25:53;;;;;;;;;;;4.90;99.90;;;;;;4302692;33;45199;-82
2022/02/27 09:28:40;;;;;;;;;;;4.90;99.90;;;;;;4304851;33;46407;-82
2022/02/27 09:31:07;;;;;;;;;;;4.90;99.90;;;;;;4302387;33;42495;-82
2022/02/27 09:33:35;;;;;;;;;;;4.90;99.90;;;;;;4315208;33;42874;-82
2022/02/27 09:36:02;;;;;;;;;;;4.90;99.90;;;;;;4302314;33;42686;-82
2022/02/27 09:38:29;;;;;;;;;;;5.00;99.90;;;;;;4302248;33;42647;-82
2022/02/27 09:40:57;;;;;;;;;;;5.00;99.90;;;;;;4303184;33;20092;-82
2022/02/27 09:43:24;;;;;;;;;;;5.00;99.90;;;;;;4302324;33;44342;-82
2022/02/27 09:45:51;;;;;;;;;;;5.00;99.90;;;;;;4301973;33;44261;-82
2022/02/27 09:48:19;;;;;;;;;;;5.10;99.90;;;;;;4302292;33;43958;-82
2022/02/27 09:50:47;;;;;;;;;;;5.10;99.90;;;;;;4302084;33;45379;-82
2022/02/27 09:53:14;;;;;;;;;;;5.10;99.90;;;;;;4302803;33;44015;-82
2022/02/27 09:55:42;;;;;;;;;;;5.10;99.90;;;;;;4302614;33;44272;-82
2022/02/27 09:58:09;;;;;;;;;;;5.10;99.90;;;;;;4302402;33;45782;-83
2022/02/27 10:00:36;;;;;;;;;;;5.20;99.90;;;;;;4315625;33;46506;-82
2022/02/27 10:03:03;;;;;;;;;;;5.20;99.90;;;;;;4301902;33;44057;-82
2022/02/27 10:05:34;;;;;;;;;;;5.20;99.90;;;;;;4302168;33;43024;-82
2022/02/27 10:08:01;;;;;;;;;;;5.20;99.90;;;;;;4302488;33;43660;-82
2022/02/27 10:10:31;;;;;;;;;;;5.20;99.90;;;;;;4314393;33;44730;-82
2022/02/27 10:13:03;;;;;;;;;;;5.20;99.90;;;;;;4303746;33;45180;-82
2022/02/27 10:15:30;;;;;;;;;;;5.30;99.90;;;;;;4318028;33;46060;-82
2022/02/27 10:17:58;;;;;;;;;;;5.30;99.90;;;;;;4304557;33;43506;-82
2022/02/27 10:20:25;;;;;;;;;;;5.30;99.90;;;;;;4304459;33;44762;-82
2022/02/27 10:22:53;;;;;;;;;;;5.30;99.90;;;;;;4304857;33;44253;-83
2022/02/27 10:25:21;;;;;;;;;;;5.40;99.90;;;;;;4304704;33;43056;-82
2022/02/27 10:28:07;;;;;;;;;;;5.30;99.90;;;;;;4304185;33;44583;-83
2022/02/27 10:30:37;;;;;;;;;;;5.40;99.90;;;;;;4317596;33;42290;-82
2022/02/27 10:33:09;;;;;;;;;;;5.40;99.90;;;;;;4304628;33;45691;-82
2022/02/27 10:35:47;;;;;;;;;;;5.40;99.90;;;;;;4317961;33;43307;-82
2022/02/27 10:38:14;;;;;;;;;;;5.40;99.90;;;;;;4316053;33;44676;-82
2022/02/27 10:40:48;;;;;;;;;;;5.40;99.90;;;;;;4304418;33;44257;-82
2022/02/27 10:43:17;;;;;;;;;;;5.50;99.90;;;;;;4303968;33;43295;-82
2022/02/27 10:45:44;;;;;;;;;;;5.50;99.90;;;;;;4304016;33;43328;-83
2022/02/27 10:48:11;;;;;;;;;;;5.50;99.90;;;;;;4304230;33;44054;-82
2022/02/27 10:50:41;;;;;;;;;;;5.60;99.90;;;;;;4304575;33;45442;-82
2022/02/27 10:53:08;;;;;;;;;;;5.60;99.90;;;;;;4304243;33;44759;-82
2022/02/27 10:55:35;;;;;;;;;;;5.60;99.90;;;;;;4304071;33;43964;-82
2022/02/27 10:58:04;;;;;;;;;;;5.70;99.90;;;;;;4304291;33;44220;-82
2022/02/27 11:00:35;;;;;;;;;;;5.60;99.90;;;;;;4304287;33;43298;-82
2022/02/27 11:03:02;;;;;;;;;;;5.70;99.90;;;;;;4303797;33;44120;-83
2022/02/27 11:05:31;;;;;;;;;;;5.70;99.90;;;;;;4303967;33;44636;-82
2022/02/27 11:07:59;;;;;;;;;;;5.70;99.90;;;;;;4304255;33;43806;-82
2022/02/27 11:10:27;;;;;;;;;;;5.70;99.90;;;;;;4303676;33;45210;-82
2022/02/27 11:12:57;;;;;;;;;;;5.80;99.90;;;;;;4304464;33;19998;-82
2022/02/27 11:15:27;;;;;;;;;;;5.80;99.90;;;;;;4303596;33;44118;-82
2022/02/27 11:17:54;;;;;;;;;;;5.80;99.90;;;;;;4303998;33;44230;-83
2022/02/27 11:20:25;;;;;;;;;;;5.90;99.90;;;;;;4303497;33;43996;-83
2022/02/27 11:22:55;;;;;;;;;;;5.90;99.90;;;;;;4303784;33;42519;-82
2022/02/27 11:25:23;;;;;;;;;;;5.90;99.90;;;;;;4316957;33;44234;-82
2022/02/27 11:28:11;;;;;;;;;;;5.90;99.90;;;;;;4303415;33;44465;-83
2022/02/27 11:30:42;;;;;;;;;;;6.00;99.90;;;;;;4303678;33;45715;-83
2022/02/27 11:33:13;;;;;;;;;;;6.00;99.90;;;;;;4317231;33;44089;-82
2022/02/27 11:35:59;;;;;;;;;;;6.10;99.90;;;;;;4303789;33;45704;-83
2022/02/27 11:38:30;;;;;;;;;;;6.10;99.90;;;;;;4315725;33;42573;-83
2022/02/27 11:41:09;;;;;;;;;;;6.10;99.90;;;;;;4303819;33;43450;-83
2022/02/27 11:43:55;;;;;;;;;;;6.10;99.90;;;;;;4303994;33;44086;-82
2022/02/27 11:46:31;;;;;;;;;;;6.20;99.90;;;;;;4303566;33;46134;-82
2022/02/27 11:48:58;;;;;;;;;;;6.20;99.90;;;;;;4303147;33;45792;-83
2022/02/27 11:51:37;;;;;;;;;;;6.20;99.90;;;;;;4303983;33;43494;-83
2022/02/27 11:54:06;;;;;;;;;;;6.30;99.90;;;;;;4303491;33;44921;-83
2022/02/27 11:56:33;;;;;;;;;;;6.30;99.90;;;;;;4302972;33;44789;-83
2022/02/27 11:59:03;;;;;;;;;;;6.30;99.90;;;;;;4316441;33;43038;-83
2022/02/27 12:01:37;;;;;;;;;;;6.30;99.90;;;;;;4302716;33;43492;-83
2022/02/27 12:04:20;;;;;;;;;;;6.40;99.90;;;;;;4316500;33;44300;-83
2022/02/27 12:07:06;;;;;;;;;;;6.40;99.90;;;;;;4316570;33;45559;-83
2022/02/27 12:09:49;;;;;;;;;;;6.50;99.90;;;;;;4316293;33;44283;-83
2022/02/27 12:12:36;;;;;;;;;;;6.50;99.90;;;;;;4316420;33;44024;-84
2022/02/27 12:15:25;;;;;;;;;;;6.50;99.90;;;;;;4315816;33;44538;-83
2022/02/27 12:17:54;;;;;;;;;;;6.60;99.90;;;;;;4316433;33;45285;-84
2022/02/27 12:20:42;;;;;;;;;;;6.60;99.90;;;;;;4303692;33;42731;-83
2022/02/27 12:23:35;;;;;;;;;;;6.60;99.90;;;;;;4302878;33;43803;-83
2022/02/27 12:26:04;;;;;;;;;;;6.70;99.90;;;;;;4316167;33;43837;-82
2022/02/27 12:28:52;;;;;;;;;;;6.80;99.90;;;;;;4314604;33;43462;-83
2022/02/27 12:31:25;;;;;;;;;;;6.80;99.90;;;;;;4316118;33;45898;-83
2022/02/27 12:33:53;;;;;;;;;;;6.80;99.90;;;;;;4315869;33;44116;-83
2022/02/27 12:36:36;;;;;;;;;;;6.80;99.90;;;;;;4302334;33;44005;-83
2022/02/27 12:39:07;;;;;;;;;;;6.90;99.90;;;;;;4303115;33;45793;-83
2022/02/27 12:41:35;;;;;;;;;;;6.90;99.90;;;;;;4302537;33;43081;-83
2022/02/27 12:44:03;;;;;;;;;;;6.90;99.90;;;;;;4302530;33;44252;-83
2022/02/27 12:46:31;;;;;;;;;;;6.90;99.90;;;;;;4302768;33;43527;-83
2022/02/27 12:51:44;;;;;;;;;;;7.10;99.90;;;;;;4316173;33;43684;-83
2022/02/27 12:54:11;;;;;;;;;;;7.10;99.90;;;;;;4302946;33;43509;-83
2022/02/27 12:56:39;;;;;;;;;;;7.20;99.90;;;;;;4315507;33;44198;-83
2022/02/27 12:59:07;;;;;;;;;;;7.20;99.90;;;;;;4302532;33;43435;-83
2022/02/27 13:01:35;;;;;;;;;;;7.30;99.90;;;;;;4302273;33;45134;-83
2022/02/27 13:04:07;;;;;;;;;;;7.30;99.90;;;;;;4303048;33;43914;-83
2022/02/27 13:06:36;;;;;;;;;;;7.30;99.90;;;;;;4302779;33;42940;-83
2022/02/27 13:09:04;;;;;;;;;;;7.40;99.90;;;;;;4302711;33;44046;-83
2022/02/27 13:11:46;;;;;;;;;;;7.40;99.90;;;;;;4302404;33;46095;-83
2022/02/27 13:14:14;;;;;;;;;;;7.40;99.90;;;;;;4302927;33;44293;-83
2022/02/27 13:16:41;;;;;;;;;;;7.50;99.90;;;;;;4315794;33;42235;-84
2022/02/27 13:19:08;;;;;;;;;;;7.50;99.90;;;;;;4302333;33;44286;-84
2022/02/27 13:21:39;;;;;;;;;;;7.60;99.90;;;;;;4315247;33;43315;-84
2022/02/27 13:24:11;;;;;;;;;;;7.60;99.90;;;;;;4302368;33;43443;-83
2022/02/27 13:26:42;;;;;;;;;;;7.60;99.90;;;;;;4302260;33;44903;-83
2022/02/27 13:29:09;;;;;;;;;;;7.70;99.90;;;;;;4315621;33;44001;-84
2022/02/27 13:31:39;;;;;;;;;;;7.70;99.90;;;;;;4302661;33;44195;-82
2022/02/27 13:34:06;;;;;;;;;;;7.80;99.90;;;;;;4302587;33;42704;-84
2022/02/27 13:36:35;;;;;;;;;;;7.80;99.90;;;;;;4315619;33;44446;-84
2022/02/27 13:39:04;;;;;;;;;;;7.80;99.90;;;;;;4302644;33;44217;-84
2022/02/27 13:41:33;;;;;;;;;;;7.90;99.90;;;;;;4302727;33;45912;-83
2022/02/27 13:44:06;;;;;;;;;;;7.90;99.90;;;;;;4302577;33;44839;-84
2022/02/27 13:46:34;;;;;;;;;;;8.00;99.90;;;;;;4303909;33;20862;-84
2022/02/27 13:49:05;;;;;;;;;;;8.00;99.90;;;;;;4318395;33;45005;-84
2022/02/27 13:51:35;;;;;;;;;;;8.00;99.90;;;;;;4305115;33;42222;-84
2022/02/27 13:54:31;;;;;;;;;;;8.10;99.90;;;;;;4305058;33;44340;-84
2022/02/27 13:57:06;;;;;;;;;;;8.10;99.90;;;;;;4298871;33;44833;-84
2022/02/27 13:59:55;;;;;;;;;;;8.20;99.90;;;;;;4305324;33;44254;-82
2022/02/27 14:02:25;;;;;;;;;;;8.20;99.90;;;;;;4304577;33;42772;-84
2022/02/27 14:05:11;;;;;;;;;;;8.20;99.90;;;;;;4304992;33;45172;-84
2022/02/27 14:07:40;;;;;;;;;;;8.30;99.90;;;;;;4305056;33;43935;-84
2022/02/27 14:10:07;;;;;;;;;;;8.30;99.90;;;;;;4304559;33;44087;-84
2022/02/27 14:12:38;;;;;;;;;;;8.30;99.90;;;;;;4317562;33;45738;-83
2022/02/27 14:15:05;;;;;;;;;;;8.40;99.90;;;;;;4304926;33;44148;-85
2022/02/27 14:17:41;;;;;;;;;;;8.40;99.90;;;;;;4305001;33;43065;-84
2022/02/27 14:20:13;;;;;;;;;;;8.40;99.90;;;;;;4304763;33;43635;-85
2022/02/27 14:22:40;;;;;;;;;;;8.50;99.90;;;;;;4304861;33;46083;-84
2022/02/27 14:25:07;;;;;;;;;;;8.50;99.90;;;;;;4317870;33;45164;-84
2022/02/27 14:27:34;;;;;;;;;;;8.50;99.90;;;;;;4316521;33;44055;-84
2022/02/27 14:30:04;;;;;;;;;;;8.50;99.90;;;;;;4317804;33;43510;-84
2022/02/27 14:32:33;;;;;;;;;;;8.60;99.90;;;;;;4304688;33;45060;-85
2022/02/27 14:35:04;;;;;;;;;;;8.60;99.90;;;;;;4318223;33;43293;-85
2022/02/27 14:37:31;;;;;;;;;;;8.70;99.90;;;;;;4304810;33;45583;-85
2022/02/27 14:40:04;;;;;;;;;;;8.70;99.90;;;;;;4304791;33;44854;-85
2022/02/27 14:42:31;;;;;;;;;;;8.70;99.90;;;;;;4304244;33;45673;-84
2022/02/27 14:44:58;;;;;;;;;;;8.80;99.90;;;;;;4304472;33;45686;-85